createdAt,value
2018-09-03T00:00:37.826Z,32.67
2018-09-03T00:03:06.285Z,34.00
2018-09-03T00:05:34.834Z,31.17
2018-09-03T00:08:03.266Z,31.97
2018-09-03T00:10:31.714Z,32.20
2018-09-03T00:13:00.129Z,29.87
2018-09-03T00:15:28.545Z,31.80
2018-09-03T00:17:56.990Z,31.43
2018-09-03T00:20:25.413Z,32.90
2018-09-03T00:22:53.846Z,30.83
2018-09-03T00:25:22.280Z,30.80
2018-09-03T00:27:50.746Z,35.60
2018-09-03T00:30:19.164Z,32.80
2018-09-03T00:32:53.045Z,44.03
2018-09-03T00:35:26.926Z,32.13
2018-09-03T00:38:00.610Z,33.90
2018-09-03T00:40:34.505Z,32.83
2018-09-03T00:43:08.185Z,32.00
2018-09-03T00:45:41.886Z,29.73
2018-09-03T00:48:10.337Z,31.70
2018-09-03T00:50:38.773Z,31.97
2018-09-03T00:53:07.255Z,34.67
2018-09-03T00:55:35.713Z,31.33
2018-09-03T00:58:04.495Z,35.50
2018-09-03T01:00:32.921Z,38.40
2018-09-03T01:03:01.431Z,32.50
2018-09-03T01:05:29.871Z,32.90
2018-09-03T01:07:58.342Z,31.17
2018-09-03T01:10:26.771Z,31.00
2018-09-03T01:12:55.206Z,35.63
2018-09-03T01:15:24.033Z,37.60
2018-09-03T01:17:52.501Z,39.23
2018-09-03T01:20:20.921Z,40.33
2018-09-03T01:22:49.353Z,33.30
2018-09-03T01:25:17.798Z,42.13
2018-09-03T01:27:46.237Z,32.57
2018-09-03T01:30:14.692Z,35.03
2018-09-03T01:32:43.145Z,32.73
2018-09-03T01:35:11.590Z,46.00
2018-09-03T01:37:40.010Z,32.43
2018-09-03T01:40:08.490Z,33.40
2018-09-03T01:42:36.935Z,30.50
2018-09-03T01:45:05.443Z,43.30
2018-09-03T01:47:34.431Z,34.83
2018-09-03T01:50:02.858Z,31.90
2018-09-03T01:52:31.342Z,42.63
2018-09-03T01:54:59.762Z,35.83
2018-09-03T01:57:28.194Z,32.70
2018-09-03T01:59:56.841Z,28.93
2018-09-03T02:02:25.265Z,29.70
2018-09-03T02:04:53.697Z,36.50
2018-09-03T02:07:22.129Z,31.37
2018-09-03T02:09:50.574Z,31.97
2018-09-03T02:12:19.025Z,38.73
2018-09-03T02:14:47.445Z,31.17
2018-09-03T02:17:15.937Z,31.17
2018-09-03T02:19:44.627Z,30.60
2018-09-03T02:22:13.062Z,29.50
2018-09-03T02:24:41.493Z,29.67
2018-09-03T02:27:09.948Z,39.20
2018-09-03T02:29:38.413Z,32.60
2018-09-03T02:32:06.890Z,35.17
2018-09-03T02:34:35.342Z,36.37
2018-09-03T02:37:03.800Z,31.07
2018-09-03T02:39:32.563Z,35.93
2018-09-03T02:42:01.844Z,31.03
2018-09-03T02:44:30.249Z,32.33
2018-09-03T02:46:58.725Z,33.97
2018-09-03T02:49:27.153Z,31.07
2018-09-03T02:51:55.857Z,32.30
2018-09-03T02:54:24.289Z,30.83
2018-09-03T02:56:52.710Z,31.30
2018-09-03T02:59:21.175Z,30.20
2018-09-03T03:01:49.998Z,29.27
2018-09-03T03:04:18.452Z,28.90
2018-09-03T03:06:46.868Z,27.83
2018-09-03T03:09:15.306Z,26.10
2018-09-03T03:11:43.756Z,28.17
2018-09-03T03:14:12.181Z,29.13
2018-09-03T03:16:40.650Z,30.00
2018-09-03T03:19:09.076Z,33.27
2018-09-03T03:21:37.551Z,29.47
2018-09-03T03:24:06.018Z,33.00
2018-09-03T03:26:34.427Z,33.10
2018-09-03T03:29:02.902Z,30.67
2018-09-03T03:31:31.321Z,30.43
2018-09-03T03:33:59.808Z,36.00
2018-09-03T03:36:28.269Z,28.90
2018-09-03T03:38:56.761Z,34.53
2018-09-03T03:41:25.260Z,30.10
2018-09-03T03:43:53.676Z,28.90
2018-09-03T03:46:22.149Z,31.20
2018-09-03T03:48:50.581Z,30.70
2018-09-03T03:51:19.058Z,32.63
2018-09-03T03:53:47.521Z,28.60
2018-09-03T03:56:15.969Z,27.17
2018-09-03T03:58:44.494Z,30.10
2018-09-03T04:01:12.936Z,31.07
2018-09-03T04:03:41.398Z,27.23
2018-09-03T04:06:09.936Z,29.70
2018-09-03T04:08:38.397Z,26.63
2018-09-03T04:11:06.897Z,27.50
2018-09-03T04:13:35.338Z,25.17
2018-09-03T04:16:03.842Z,26.80
2018-09-03T04:18:32.288Z,26.30
2018-09-03T04:21:00.753Z,26.57
2018-09-03T04:23:29.283Z,24.20
2018-09-03T04:25:57.866Z,25.57
2018-09-03T04:28:26.345Z,26.47
2018-09-03T04:30:54.777Z,24.80
2018-09-03T04:33:23.501Z,26.00
2018-09-03T04:35:51.963Z,24.80
2018-09-03T04:38:20.446Z,24.37
2018-09-03T04:40:48.905Z,23.23
2018-09-03T04:43:17.349Z,22.70
2018-09-03T04:45:45.889Z,23.20
2018-09-03T04:48:14.460Z,24.13
2018-09-03T04:50:42.835Z,24.97
2018-09-03T04:53:11.301Z,20.80
2018-09-03T04:55:39.761Z,22.50
2018-09-03T04:58:08.446Z,25.30
2018-09-03T05:00:36.902Z,20.97
2018-09-03T05:03:05.619Z,22.17
2018-09-03T05:05:34.068Z,23.20
2018-09-03T05:08:02.497Z,23.63
2018-09-03T05:10:30.950Z,21.50
2018-09-03T05:12:59.381Z,23.70
2018-09-03T05:15:27.843Z,21.87
2018-09-03T05:17:56.325Z,22.27
2018-09-03T05:20:24.785Z,23.27
2018-09-03T05:22:53.273Z,21.20
2018-09-03T05:25:21.957Z,21.60
2018-09-03T05:27:50.685Z,20.73
2018-09-03T05:30:19.113Z,20.27
2018-09-03T05:32:47.590Z,19.10
2018-09-03T05:35:16.050Z,21.97
2018-09-03T05:37:44.713Z,19.90
2018-09-03T05:40:13.178Z,21.13
2018-09-03T05:42:41.605Z,19.47
2018-09-03T05:45:10.339Z,19.70
2018-09-03T05:47:38.805Z,20.53
2018-09-03T05:50:07.369Z,19.53
2018-09-03T05:52:35.837Z,19.20
2018-09-03T05:55:04.625Z,21.70
2018-09-03T05:57:33.077Z,20.37
2018-09-03T06:00:01.522Z,18.80
2018-09-03T06:02:29.989Z,20.43
2018-09-03T06:04:58.492Z,19.60
2018-09-03T06:07:26.888Z,18.40
2018-09-03T06:09:55.409Z,18.97
2018-09-03T06:12:24.157Z,19.10
2018-09-03T06:14:52.613Z,17.87
2018-09-03T06:17:21.301Z,18.33
2018-09-03T06:19:49.729Z,17.90
2018-09-03T06:22:18.213Z,18.73
2018-09-03T06:24:46.990Z,18.13
2018-09-03T06:27:15.469Z,19.07
2018-09-03T06:29:44.216Z,17.13
2018-09-03T06:32:12.665Z,17.40
2018-09-03T06:34:41.119Z,17.77
2018-09-03T06:37:09.565Z,19.10
2018-09-03T06:39:38.103Z,17.20
2018-09-03T06:42:06.950Z,18.20
2018-09-03T06:44:35.461Z,17.70
2018-09-03T06:47:04.014Z,16.27
2018-09-03T06:49:32.450Z,15.97
2018-09-03T06:52:00.971Z,17.37
2018-09-03T06:54:29.420Z,16.77
2018-09-03T06:56:57.903Z,14.90
2018-09-03T06:59:26.403Z,17.40
2018-09-03T07:01:55.240Z,17.87
2018-09-03T07:04:23.683Z,16.33
2018-09-03T07:06:52.179Z,16.10
2018-09-03T07:09:20.750Z,17.30
2018-09-03T07:11:49.202Z,17.83
2018-09-03T07:14:17.661Z,16.87
2018-09-03T07:16:46.135Z,18.60
2018-09-03T07:19:14.576Z,17.50
2018-09-03T07:21:43.298Z,16.83
2018-09-03T07:24:11.749Z,17.17
2018-09-03T07:26:40.333Z,16.77
2018-09-03T07:29:08.782Z,17.17
2018-09-03T07:31:37.250Z,16.10
2018-09-03T07:34:05.729Z,15.67
2018-09-03T07:36:34.446Z,14.77
2018-09-03T07:39:02.956Z,13.87
2018-09-03T07:41:31.453Z,15.10
2018-09-03T07:43:59.900Z,15.60
2018-09-03T07:46:28.609Z,15.97
2018-09-03T07:48:57.087Z,16.27
2018-09-03T07:51:25.598Z,14.87
2018-09-03T07:53:54.045Z,15.93
2018-09-03T07:56:22.537Z,15.07
2018-09-03T07:58:50.978Z,16.30
2018-09-03T08:01:19.520Z,15.60
2018-09-03T08:03:47.949Z,15.87
2018-09-03T08:06:16.383Z,16.93
2018-09-03T08:08:44.852Z,15.87
2018-09-03T08:11:13.299Z,17.43
2018-09-03T08:13:42.852Z,15.27
2018-09-03T08:16:11.978Z,18.07
2018-09-03T08:18:41.095Z,15.90
2018-09-03T08:21:09.553Z,15.60
2018-09-03T08:23:38.046Z,16.13
2018-09-03T08:26:06.737Z,15.23
2018-09-03T08:28:35.169Z,15.03
2018-09-03T08:31:03.648Z,14.00
2018-09-03T08:33:32.089Z,14.67
2018-09-03T08:36:00.654Z,15.10
2018-09-03T08:38:29.121Z,15.00
2018-09-03T08:40:57.608Z,15.10
2018-09-03T08:43:26.066Z,14.90
2018-09-03T08:45:54.530Z,16.67
2018-09-03T08:48:23.077Z,15.60
2018-09-03T08:50:51.528Z,14.77
2018-09-03T08:53:20.014Z,13.47
2018-09-03T08:55:48.478Z,12.87
2018-09-03T08:58:16.985Z,14.80
2018-09-03T09:00:45.437Z,15.80
2018-09-03T09:03:19.125Z,14.67
2018-09-03T09:05:47.617Z,15.13
2018-09-03T09:08:16.057Z,15.67
2018-09-03T09:10:44.518Z,15.90
2018-09-03T09:13:13.036Z,15.30
2018-09-03T09:15:41.721Z,17.07
2018-09-03T09:18:10.161Z,16.20
2018-09-03T09:20:38.632Z,16.53
2018-09-03T09:23:07.087Z,15.70
2018-09-03T09:25:35.553Z,15.87
2018-09-03T09:28:04.009Z,14.77
2018-09-03T09:30:32.515Z,16.20
2018-09-03T09:33:00.970Z,16.60
2018-09-03T09:35:29.445Z,16.70
2018-09-03T09:37:57.898Z,17.17
2018-09-03T09:40:26.358Z,16.60
2018-09-03T09:42:54.932Z,17.17
2018-09-03T09:45:23.357Z,17.20
2018-09-03T09:47:51.797Z,16.43
2018-09-03T09:50:20.569Z,15.97
2018-09-03T09:52:49.291Z,16.03
2018-09-03T09:55:17.832Z,13.67
2018-09-03T09:57:46.299Z,14.07
2018-09-03T10:00:19.950Z,13.03
2018-09-03T10:02:48.386Z,12.60
2018-09-03T10:05:16.844Z,12.57
2018-09-03T10:07:45.312Z,12.20
2018-09-03T10:10:13.753Z,11.93
2018-09-03T10:12:42.208Z,11.87
2018-09-03T10:15:10.651Z,12.60
2018-09-03T10:17:39.152Z,12.13
2018-09-03T10:20:07.686Z,11.90
2018-09-03T10:22:36.130Z,11.03
2018-09-03T10:25:04.714Z,12.40
2018-09-03T10:27:33.169Z,12.30
2018-09-03T10:30:01.627Z,13.20
2018-09-03T10:32:31.091Z,11.27
2018-09-03T10:34:59.581Z,11.73
2018-09-03T10:37:28.029Z,12.17
2018-09-03T10:39:56.483Z,11.37
2018-09-03T10:42:27.315Z,12.90
2018-09-03T10:44:55.825Z,11.63
2018-09-03T10:47:24.500Z,12.20
2018-09-03T10:49:52.834Z,12.43
2018-09-03T10:52:21.322Z,12.43
2018-09-03T10:54:49.795Z,12.60
2018-09-03T10:57:18.274Z,10.83
2018-09-03T10:59:46.717Z,12.00
2018-09-03T11:02:15.230Z,13.30
2018-09-03T11:04:43.710Z,12.30
2018-09-03T11:07:12.182Z,11.57
2018-09-03T11:09:40.901Z,11.93
2018-09-03T11:12:09.390Z,12.20
2018-09-03T11:14:38.122Z,12.33
2018-09-03T11:17:06.573Z,11.37
2018-09-03T11:19:39.044Z,11.53
2018-09-03T11:22:07.486Z,11.60
2018-09-03T11:24:35.953Z,10.53
2018-09-03T11:27:04.457Z,10.80
2018-09-03T11:29:33.169Z,11.30
2018-09-03T11:32:01.907Z,11.67
2018-09-03T11:34:30.334Z,9.80
2018-09-03T11:36:58.777Z,9.03
2018-09-03T11:39:27.209Z,10.00
2018-09-03T11:41:55.677Z,9.73
2018-09-03T11:44:24.099Z,9.60
2018-09-03T11:46:52.549Z,9.17
2018-09-03T11:49:21.010Z,9.73
2018-09-03T11:51:49.697Z,8.50
2018-09-03T11:54:18.634Z,8.77
2018-09-03T11:56:47.322Z,9.57
2018-09-03T11:59:15.847Z,8.90
2018-09-03T12:01:44.554Z,9.23
2018-09-03T12:04:13.094Z,8.63
2018-09-03T12:06:41.646Z,8.03
2018-09-03T12:09:11.073Z,7.97
2018-09-03T12:11:39.575Z,7.60
2018-09-03T12:14:20.280Z,9.43
2018-09-03T12:16:48.777Z,8.50
2018-09-03T12:19:17.250Z,7.93
2018-09-03T12:21:45.735Z,8.07
2018-09-03T12:24:14.220Z,9.17
2018-09-03T12:26:42.700Z,9.37
2018-09-03T12:29:11.182Z,8.70
2018-09-03T12:31:39.662Z,9.50
2018-09-03T12:34:08.132Z,8.93
2018-09-03T12:36:36.600Z,8.40
2018-09-03T12:39:08.396Z,9.03
2018-09-03T12:41:36.913Z,8.60
2018-09-03T12:44:05.493Z,8.87
2018-09-03T12:46:33.973Z,8.50
2018-09-03T12:49:02.453Z,9.43
2018-09-03T12:51:30.957Z,9.70
2018-09-03T12:53:59.402Z,10.17
2018-09-03T12:56:27.861Z,9.30
2018-09-03T12:58:56.358Z,9.90
2018-09-03T13:01:24.840Z,9.40
2018-09-03T13:03:53.291Z,11.07
2018-09-03T13:06:21.750Z,10.40
2018-09-03T13:08:50.199Z,9.50
2018-09-03T13:11:18.726Z,11.20
2018-09-03T13:13:47.197Z,11.70
2018-09-03T13:16:15.674Z,11.30
2018-09-03T13:18:44.203Z,12.70
2018-09-03T13:21:12.956Z,11.70
2018-09-03T13:23:41.495Z,11.47
2018-09-03T13:26:09.942Z,10.93
2018-09-03T13:28:38.637Z,11.63
2018-09-03T13:31:07.073Z,12.60
2018-09-03T13:33:35.580Z,11.43
2018-09-03T13:36:04.083Z,10.30
2018-09-03T13:38:32.530Z,11.10
2018-09-03T13:41:01.237Z,10.70
2018-09-03T13:43:29.657Z,10.33
2018-09-03T13:45:58.147Z,11.30
2018-09-03T13:48:26.573Z,11.20
2018-09-03T13:50:55.084Z,10.57
2018-09-03T13:53:23.530Z,12.10
2018-09-03T13:55:51.993Z,11.47
2018-09-03T13:58:20.474Z,12.13
2018-09-03T14:00:48.924Z,10.33
2018-09-03T14:03:17.378Z,10.93
2018-09-03T14:05:45.866Z,11.30
2018-09-03T14:08:14.582Z,10.47
2018-09-03T14:10:43.017Z,9.47
2018-09-03T14:13:11.566Z,10.40
2018-09-03T14:15:40.327Z,11.13
2018-09-03T14:18:08.810Z,11.70
2018-09-03T14:20:37.245Z,10.27
2018-09-03T14:23:06.063Z,8.70
2018-09-03T14:25:34.561Z,9.20
2018-09-03T14:28:03.057Z,9.43
2018-09-03T14:30:31.525Z,9.43
2018-09-03T14:32:59.987Z,9.53
2018-09-03T14:35:28.447Z,8.60
2018-09-03T14:37:56.905Z,9.37
2018-09-03T14:40:25.989Z,9.43
2018-09-03T14:42:54.522Z,9.70
2018-09-03T14:45:23.038Z,9.20
2018-09-03T14:47:51.465Z,8.83
2018-09-03T14:50:19.958Z,10.20
2018-09-03T14:52:48.441Z,8.90
2018-09-03T14:55:16.923Z,8.87
2018-09-03T14:57:45.420Z,8.60
2018-09-03T15:00:13.886Z,8.67
2018-09-03T15:02:42.358Z,8.47
2018-09-03T15:05:10.864Z,9.00
2018-09-03T15:07:39.383Z,7.90
2018-09-03T15:10:07.845Z,9.33
2018-09-03T15:12:36.294Z,9.30
2018-09-03T15:15:08.408Z,8.03
2018-09-03T15:17:36.842Z,8.93
2018-09-03T15:20:06.195Z,8.60
2018-09-03T15:22:35.014Z,8.83
2018-09-03T15:25:03.536Z,10.17
2018-09-03T15:27:31.999Z,8.80
2018-09-03T15:30:00.466Z,8.67
2018-09-03T15:32:28.996Z,9.20
2018-09-03T15:34:57.449Z,9.13
2018-09-03T15:37:25.873Z,10.27
2018-09-03T15:39:54.477Z,10.10
2018-09-03T15:42:22.973Z,8.40
2018-09-03T15:44:51.610Z,9.30
2018-09-03T15:47:20.090Z,9.53
2018-09-03T15:49:48.540Z,8.60
2018-09-03T15:52:17.013Z,9.73
2018-09-03T15:54:45.469Z,8.77
2018-09-03T15:57:13.908Z,8.77
2018-09-03T15:59:42.398Z,9.27
2018-09-03T16:02:10.850Z,9.43
2018-09-03T16:04:39.322Z,8.13
2018-09-03T16:07:07.762Z,8.70
2018-09-03T16:09:36.241Z,8.43
2018-09-03T16:12:04.693Z,9.20
2018-09-03T16:14:33.169Z,9.83
2018-09-03T16:17:01.636Z,9.93
2018-09-03T16:19:30.113Z,9.10
2018-09-03T16:21:58.672Z,9.97
2018-09-03T16:24:27.137Z,9.87
2018-09-03T16:26:55.813Z,8.33
2018-09-03T16:29:24.297Z,9.40
2018-09-03T16:31:52.757Z,9.03
2018-09-03T16:34:21.273Z,9.60
2018-09-03T16:36:49.753Z,10.57
2018-09-03T16:39:18.253Z,8.90
2018-09-03T16:41:46.692Z,8.93
2018-09-03T16:44:15.170Z,8.87
2018-09-03T16:46:43.649Z,9.90
2018-09-03T16:49:12.170Z,9.90
2018-09-03T16:51:40.700Z,9.40
2018-09-03T16:54:09.162Z,8.73
2018-09-03T16:56:37.646Z,9.70
2018-09-03T16:59:06.141Z,9.17
2018-09-03T17:01:34.784Z,9.17
2018-09-03T17:04:03.134Z,9.10
2018-09-03T17:06:31.593Z,9.37
2018-09-03T17:09:00.051Z,10.23
2018-09-03T17:11:28.526Z,8.87
2018-09-03T17:13:57.142Z,9.10
2018-09-03T17:16:25.636Z,9.53
2018-09-03T17:18:54.384Z,8.83
2018-09-03T17:21:22.820Z,8.20
2018-09-03T17:23:51.265Z,8.37
2018-09-03T17:26:20.012Z,9.60
2018-09-03T17:28:48.471Z,9.90
2018-09-03T17:31:16.957Z,10.23
2018-09-03T17:33:45.773Z,10.60
2018-09-03T17:36:14.253Z,8.87
2018-09-03T17:38:42.720Z,9.00
2018-09-03T17:41:11.176Z,10.33
2018-09-03T17:43:39.655Z,10.27
2018-09-03T17:46:08.114Z,10.40
2018-09-03T17:48:36.765Z,9.07
2018-09-03T17:51:05.743Z,13.87
2018-09-03T17:53:34.267Z,11.67
2018-09-03T17:56:02.731Z,10.73
2018-09-03T17:58:31.285Z,10.57
2018-09-03T18:01:00.157Z,10.93
2018-09-03T18:03:28.685Z,11.03
2018-09-03T18:05:57.226Z,11.00
2018-09-03T18:08:26.640Z,10.73
2018-09-03T18:10:55.114Z,9.93
2018-09-03T18:13:23.590Z,10.93
2018-09-03T18:15:52.044Z,11.67
2018-09-03T18:18:20.521Z,12.60
2018-09-03T18:20:49.010Z,11.20
2018-09-03T18:23:17.615Z,12.10
2018-09-03T18:25:46.073Z,11.27
2018-09-03T18:28:14.541Z,11.63
2018-09-03T18:30:43.007Z,10.97
2018-09-03T18:33:11.518Z,11.47
2018-09-03T18:35:40.209Z,12.40
2018-09-03T18:38:08.925Z,13.37
2018-09-03T18:40:37.393Z,11.20
2018-09-03T18:43:05.910Z,13.50
2018-09-03T18:45:34.409Z,11.80
2018-09-03T18:48:02.854Z,11.57
2018-09-03T18:50:31.317Z,11.20
2018-09-03T18:52:59.865Z,10.93
2018-09-03T18:55:28.337Z,10.80
2018-09-03T18:57:56.774Z,10.83
2018-09-03T19:00:25.299Z,10.77
2018-09-03T19:02:53.696Z,11.27
2018-09-03T19:05:22.252Z,11.23
2018-09-03T19:07:50.714Z,11.30
2018-09-03T19:10:19.166Z,10.33
2018-09-03T19:12:47.646Z,11.27
2018-09-03T19:15:16.096Z,11.20
2018-09-03T19:17:44.557Z,10.93
2018-09-03T19:20:13.020Z,10.07
2018-09-03T19:22:41.469Z,9.63
2018-09-03T19:25:10.177Z,10.37
2018-09-03T19:27:38.661Z,10.40
2018-09-03T19:30:07.209Z,9.90
2018-09-03T19:32:35.674Z,11.17
2018-09-03T19:35:04.181Z,9.47
2018-09-03T19:37:33.392Z,9.17
2018-09-03T19:40:01.853Z,9.90
2018-09-03T19:42:30.293Z,8.90
2018-09-03T19:44:58.734Z,9.23
2018-09-03T19:47:27.196Z,8.37
2018-09-03T19:49:55.639Z,9.73
2018-09-03T19:52:24.126Z,9.80
2018-09-03T19:54:52.798Z,8.93
2018-09-03T19:57:21.278Z,8.90
2018-09-03T19:59:50.001Z,9.53
2018-09-03T20:02:18.472Z,8.43
2018-09-03T20:04:46.938Z,9.67
2018-09-03T20:07:15.369Z,10.27
2018-09-03T20:09:44.063Z,8.60
2018-09-03T20:12:12.563Z,9.40
2018-09-03T20:14:41.110Z,8.57
2018-09-03T20:17:09.606Z,8.87
2018-09-03T20:19:38.059Z,9.63
2018-09-03T20:22:12.214Z,8.67
2018-09-03T20:24:40.839Z,8.97
2018-09-03T20:27:09.358Z,8.50
2018-09-03T20:29:37.825Z,8.57
2018-09-03T20:32:06.344Z,8.70
2018-09-03T20:34:34.777Z,9.30
2018-09-03T20:37:03.224Z,9.10
2018-09-03T20:39:31.660Z,9.67
2018-09-03T20:42:00.144Z,9.07
2018-09-03T20:44:28.834Z,9.20
2018-09-03T20:46:57.313Z,10.53
2018-09-03T20:49:25.796Z,9.90
2018-09-03T20:51:54.333Z,9.70
2018-09-03T20:54:22.909Z,9.30
2018-09-03T20:56:51.681Z,11.37
2018-09-03T20:59:20.847Z,11.30
2018-09-03T21:01:49.250Z,10.33
2018-09-03T21:04:17.886Z,10.10
2018-09-03T21:06:46.606Z,9.80
2018-09-03T21:09:15.069Z,10.80
2018-09-03T21:11:43.562Z,11.50
2018-09-03T21:14:12.009Z,11.30
2018-09-03T21:16:40.734Z,11.00
2018-09-03T21:19:09.168Z,11.37
2018-09-03T21:21:38.017Z,9.70
2018-09-03T21:24:06.457Z,10.77
2018-09-03T21:26:34.922Z,10.60
2018-09-03T21:29:03.398Z,11.20
2018-09-03T21:31:31.868Z,11.03
2018-09-03T21:34:00.347Z,11.57
2018-09-03T21:36:28.813Z,12.37
2018-09-03T21:38:57.340Z,11.23
2018-09-03T21:41:25.856Z,12.07
2018-09-03T21:43:54.376Z,11.67
2018-09-03T21:46:22.871Z,12.17
2018-09-03T21:48:51.337Z,12.63
2018-09-03T21:51:19.829Z,12.73
2018-09-03T21:53:48.267Z,11.80
2018-09-03T21:56:16.746Z,11.77
2018-09-03T21:58:45.202Z,11.07
2018-09-03T22:01:13.698Z,12.13
2018-09-03T22:03:42.162Z,12.27
2018-09-03T22:06:10.605Z,13.00
2018-09-03T22:08:39.180Z,11.57
2018-09-03T22:11:07.597Z,11.53
2018-09-03T22:13:36.088Z,11.60
2018-09-03T22:16:04.621Z,13.70
2018-09-03T22:18:33.144Z,12.93
2018-09-03T22:21:01.667Z,13.60
2018-09-03T22:23:30.105Z,14.13
2018-09-03T22:25:58.582Z,14.37
2018-09-03T22:28:27.032Z,14.57
2018-09-03T22:30:55.568Z,14.40
2018-09-03T22:33:24.011Z,13.00
2018-09-03T22:35:52.498Z,12.43
2018-09-03T22:38:20.982Z,13.90
2018-09-03T22:40:49.456Z,14.63
2018-09-03T22:43:17.898Z,13.93
2018-09-03T22:45:46.466Z,14.33
2018-09-03T22:48:15.043Z,13.90
2018-09-03T22:50:43.525Z,16.17
2018-09-03T22:53:12.027Z,16.50
2018-09-03T22:55:40.494Z,16.17
2018-09-03T22:58:08.979Z,15.73
2018-09-03T23:00:37.416Z,15.03
2018-09-03T23:03:06.017Z,15.43
2018-09-03T23:05:34.570Z,15.00
2018-09-03T23:08:02.990Z,15.60
2018-09-03T23:10:31.450Z,15.87
2018-09-03T23:13:00.129Z,13.73
2018-09-03T23:15:28.658Z,15.17
2018-09-03T23:17:57.125Z,13.60
2018-09-03T23:20:25.586Z,14.53
2018-09-03T23:22:54.039Z,15.13
2018-09-03T23:25:23.225Z,13.57
2018-09-03T23:27:51.716Z,15.70
2018-09-03T23:30:20.149Z,13.90
2018-09-03T23:32:48.609Z,15.23
2018-09-03T23:35:17.125Z,15.30
2018-09-03T23:37:45.602Z,15.30
2018-09-03T23:40:14.050Z,14.83
2018-09-03T23:42:42.510Z,14.23
2018-09-03T23:45:10.985Z,15.63
2018-09-03T23:47:39.437Z,16.30
2018-09-03T23:50:08.170Z,15.30
2018-09-03T23:52:36.642Z,16.60
2018-09-03T23:55:05.268Z,16.43
2018-09-03T23:57:33.728Z,17.43
